sensor_id;sensor_type;location;lat;lon;timestamp;P1;durP1;ratioP1;P2;durP2;ratioP2
10894;SDS011;5500;49.886;8.074;2022-12-15T00:01:59;22.47;;;15.67;;
10894;SDS011;5500;49.886;8.074;2022-12-15T00:04:45;19.17;;;14.60;;
10894;SDS011;5500;49.886;8.074;2022-12-15T00:07:30;21.67;;;15.37;;
10894;SDS011;5500;49.886;8.074;2022-12-15T00:10:15;21.30;;;14.93;;
10894;SDS011;5500;49.886;8.074;2022-12-15T00:13:01;23.73;;;15.97;;
10894;SDS011;5500;49.886;8.074;2022-12-15T00:15:46;23.50;;;15.50;;
10894;SDS011;5500;49.886;8.074;2022-12-15T00:18:33;24.23;;;14.87;;
10894;SDS011;5500;49.886;8.074;2022-12-15T00:21:18;22.73;;;16.00;;
10894;SDS011;5500;49.886;8.074;2022-12-15T00:24:04;22.00;;;15.37;;
10894;SDS011;5500;49.886;8.074;2022-12-15T00:26:50;20.10;;;15.23;;
10894;SDS011;5500;49.886;8.074;2022-12-15T00:29:35;19.23;;;14.63;;
10894;SDS011;5500;49.886;8.074;2022-12-15T00:32:21;22.70;;;15.17;;
10894;SDS011;5500;49.886;8.074;2022-12-15T00:35:08;23.83;;;14.63;;
10894;SDS011;5500;49.886;8.074;2022-12-15T00:37:53;20.63;;;14.03;;
10894;SDS011;5500;49.886;8.074;2022-12-15T00:40:38;22.07;;;13.30;;
10894;SDS011;5500;49.886;8.074;2022-12-15T00:43:06;21.87;;;13.73;;
10894;SDS011;5500;49.886;8.074;2022-12-15T00:45:37;19.80;;;13.87;;
10894;SDS011;5500;49.886;8.074;2022-12-15T00:48:22;20.47;;;13.70;;
10894;SDS011;5500;49.886;8.074;2022-12-15T00:50:51;20.40;;;13.67;;
10894;SDS011;5500;49.886;8.074;2022-12-15T00:53:18;18.80;;;13.60;;
10894;SDS011;5500;49.886;8.074;2022-12-15T00:56:03;18.53;;;12.87;;
10894;SDS011;5500;49.886;8.074;2022-12-15T00:58:48;18.53;;;13.07;;
10894;SDS011;5500;49.886;8.074;2022-12-15T01:01:34;21.03;;;13.77;;
10894;SDS011;5500;49.886;8.074;2022-12-15T01:04:19;20.23;;;12.93;;
10894;SDS011;5500;49.886;8.074;2022-12-15T01:07:06;20.10;;;12.47;;
10894;SDS011;5500;49.886;8.074;2022-12-15T01:09:51;18.10;;;12.80;;
10894;SDS011;5500;49.886;8.074;2022-12-15T01:12:36;17.17;;;12.30;;
10894;SDS011;5500;49.886;8.074;2022-12-15T01:15:22;18.80;;;12.30;;
10894;SDS011;5500;49.886;8.074;2022-12-15T01:18:07;19.87;;;12.53;;
10894;SDS011;5500;49.886;8.074;2022-12-15T01:20:55;19.30;;;13.57;;
10894;SDS011;5500;49.886;8.074;2022-12-15T01:23:25;19.27;;;12.63;;
10894;SDS011;5500;49.886;8.074;2022-12-15T01:25:53;18.33;;;12.47;;
10894;SDS011;5500;49.886;8.074;2022-12-15T01:28:21;17.23;;;12.57;;
10894;SDS011;5500;49.886;8.074;2022-12-15T01:30:49;20.40;;;13.53;;
10894;SDS011;5500;49.886;8.074;2022-12-15T01:33:17;18.40;;;12.47;;
10894;SDS011;5500;49.886;8.074;2022-12-15T01:35:53;18.37;;;12.37;;
10894;SDS011;5500;49.886;8.074;2022-12-15T01:38:22;20.13;;;13.33;;
10894;SDS011;5500;49.886;8.074;2022-12-15T01:40:53;18.87;;;13.33;;
10894;SDS011;5500;49.886;8.074;2022-12-15T01:43:22;19.73;;;13.50;;
10894;SDS011;5500;49.886;8.074;2022-12-15T01:45:52;17.83;;;12.10;;
10894;SDS011;5500;49.886;8.074;2022-12-15T01:48:26;20.53;;;13.07;;
10894;SDS011;5500;49.886;8.074;2022-12-15T01:50:57;17.10;;;12.23;;
10894;SDS011;5500;49.886;8.074;2022-12-15T01:53:29;17.93;;;12.00;;
10894;SDS011;5500;49.886;8.074;2022-12-15T01:55:59;18.30;;;12.17;;
10894;SDS011;5500;49.886;8.074;2022-12-15T01:58:28;20.57;;;12.20;;
10894;SDS011;5500;49.886;8.074;2022-12-15T02:00:55;18.27;;;11.63;;
10894;SDS011;5500;49.886;8.074;2022-12-15T02:03:23;17.37;;;11.20;;
10894;SDS011;5500;49.886;8.074;2022-12-15T02:05:51;19.17;;;13.10;;
10894;SDS011;5500;49.886;8.074;2022-12-15T02:08:19;18.87;;;12.73;;
10894;SDS011;5500;49.886;8.074;2022-12-15T02:10:52;17.10;;;12.33;;
10894;SDS011;5500;49.886;8.074;2022-12-15T02:13:38;18.43;;;13.00;;
10894;SDS011;5500;49.886;8.074;2022-12-15T02:16:11;18.53;;;13.23;;
10894;SDS011;5500;49.886;8.074;2022-12-15T02:18:45;19.90;;;13.90;;
10894;SDS011;5500;49.886;8.074;2022-12-15T02:21:17;19.13;;;13.03;;
10894;SDS011;5500;49.886;8.074;2022-12-15T02:26:57;18.40;;;12.43;;
10894;SDS011;5500;49.886;8.074;2022-12-15T02:29:43;19.97;;;12.60;;
10894;SDS011;5500;49.886;8.074;2022-12-15T02:32:36;20.17;;;13.03;;
10894;SDS011;5500;49.886;8.074;2022-12-15T02:35:07;20.80;;;13.47;;
10894;SDS011;5500;49.886;8.074;2022-12-15T02:37:37;23.70;;;13.90;;
10894;SDS011;5500;49.886;8.074;2022-12-15T02:40:07;18.37;;;12.87;;
10894;SDS011;5500;49.886;8.074;2022-12-15T02:42:37;17.70;;;12.33;;
10894;SDS011;5500;49.886;8.074;2022-12-15T02:45:09;18.10;;;12.40;;
10894;SDS011;5500;49.886;8.074;2022-12-15T02:47:40;20.10;;;12.40;;
10894;SDS011;5500;49.886;8.074;2022-12-15T02:53:06;17.23;;;12.27;;
10894;SDS011;5500;49.886;8.074;2022-12-15T02:55:41;18.53;;;12.67;;
10894;SDS011;5500;49.886;8.074;2022-12-15T02:58:18;17.33;;;11.97;;
10894;SDS011;5500;49.886;8.074;2022-12-15T03:00:51;15.73;;;11.27;;
10894;SDS011;5500;49.886;8.074;2022-12-15T03:03:22;16.13;;;12.03;;
10894;SDS011;5500;49.886;8.074;2022-12-15T03:05:50;17.23;;;11.70;;
10894;SDS011;5500;49.886;8.074;2022-12-15T03:08:18;20.70;;;13.93;;
10894;SDS011;5500;49.886;8.074;2022-12-15T03:10:46;19.70;;;13.57;;
10894;SDS011;5500;49.886;8.074;2022-12-15T03:13:14;20.67;;;13.17;;
10894;SDS011;5500;49.886;8.074;2022-12-15T03:15:42;19.80;;;12.10;;
10894;SDS011;5500;49.886;8.074;2022-12-15T03:18:10;20.17;;;12.93;;
10894;SDS011;5500;49.886;8.074;2022-12-15T03:20:39;20.03;;;13.10;;
10894;SDS011;5500;49.886;8.074;2022-12-15T03:23:06;24.00;;;13.77;;
10894;SDS011;5500;49.886;8.074;2022-12-15T03:25:34;19.80;;;12.83;;
10894;SDS011;5500;49.886;8.074;2022-12-15T03:28:01;21.50;;;13.87;;
10894;SDS011;5500;49.886;8.074;2022-12-15T03:30:29;18.43;;;12.47;;
10894;SDS011;5500;49.886;8.074;2022-12-15T03:32:57;21.53;;;13.50;;
10894;SDS011;5500;49.886;8.074;2022-12-15T03:35:24;21.17;;;13.27;;
10894;SDS011;5500;49.886;8.074;2022-12-15T03:37:53;23.50;;;13.83;;
10894;SDS011;5500;49.886;8.074;2022-12-15T03:40:21;20.87;;;13.53;;
10894;SDS011;5500;49.886;8.074;2022-12-15T03:42:49;17.20;;;11.87;;
10894;SDS011;5500;49.886;8.074;2022-12-15T03:45:17;21.13;;;13.47;;
10894;SDS011;5500;49.886;8.074;2022-12-15T03:47:46;18.70;;;13.03;;
10894;SDS011;5500;49.886;8.074;2022-12-15T03:50:15;20.37;;;13.83;;
10894;SDS011;5500;49.886;8.074;2022-12-15T03:52:43;20.20;;;13.50;;
10894;SDS011;5500;49.886;8.074;2022-12-15T03:55:13;25.87;;;14.80;;
10894;SDS011;5500;49.886;8.074;2022-12-15T03:57:41;23.73;;;14.47;;
10894;SDS011;5500;49.886;8.074;2022-12-15T04:00:09;19.93;;;13.47;;
10894;SDS011;5500;49.886;8.074;2022-12-15T04:02:40;24.70;;;14.90;;
10894;SDS011;5500;49.886;8.074;2022-12-15T04:05:08;18.47;;;13.27;;
10894;SDS011;5500;49.886;8.074;2022-12-15T04:07:35;21.37;;;15.27;;
10894;SDS011;5500;49.886;8.074;2022-12-15T04:10:03;21.07;;;14.23;;
10894;SDS011;5500;49.886;8.074;2022-12-15T04:12:33;22.40;;;13.93;;
10894;SDS011;5500;49.886;8.074;2022-12-15T04:15:00;24.10;;;13.77;;
10894;SDS011;5500;49.886;8.074;2022-12-15T04:17:28;20.17;;;13.87;;
10894;SDS011;5500;49.886;8.074;2022-12-15T04:19:56;22.80;;;13.80;;
10894;SDS011;5500;49.886;8.074;2022-12-15T04:22:36;17.67;;;13.27;;
10894;SDS011;5500;49.886;8.074;2022-12-15T04:25:05;20.87;;;12.93;;
10894;SDS011;5500;49.886;8.074;2022-12-15T04:27:53;22.90;;;13.77;;
10894;SDS011;5500;49.886;8.074;2022-12-15T04:30:39;23.17;;;14.33;;
10894;SDS011;5500;49.886;8.074;2022-12-15T04:33:28;21.17;;;14.50;;
10894;SDS011;5500;49.886;8.074;2022-12-15T04:36:13;23.90;;;14.33;;
10894;SDS011;5500;49.886;8.074;2022-12-15T04:38:58;21.00;;;13.80;;
10894;SDS011;5500;49.886;8.074;2022-12-15T04:41:43;19.07;;;13.57;;
10894;SDS011;5500;49.886;8.074;2022-12-15T04:44:30;20.70;;;12.83;;
10894;SDS011;5500;49.886;8.074;2022-12-15T04:47:15;19.43;;;13.53;;
10894;SDS011;5500;49.886;8.074;2022-12-15T04:50:00;19.77;;;13.50;;
10894;SDS011;5500;49.886;8.074;2022-12-15T04:52:46;20.90;;;12.80;;
10894;SDS011;5500;49.886;8.074;2022-12-15T04:55:33;18.00;;;12.67;;
10894;SDS011;5500;49.886;8.074;2022-12-15T04:58:18;22.10;;;14.43;;
10894;SDS011;5500;49.886;8.074;2022-12-15T05:01:05;20.20;;;13.30;;
10894;SDS011;5500;49.886;8.074;2022-12-15T05:03:51;21.13;;;14.63;;
10894;SDS011;5500;49.886;8.074;2022-12-15T05:06:36;21.03;;;14.00;;
10894;SDS011;5500;49.886;8.074;2022-12-15T05:09:21;20.57;;;13.27;;
10894;SDS011;5500;49.886;8.074;2022-12-15T05:12:06;20.30;;;13.07;;
10894;SDS011;5500;49.886;8.074;2022-12-15T05:14:51;20.70;;;12.77;;
10894;SDS011;5500;49.886;8.074;2022-12-15T05:17:38;20.50;;;12.63;;
10894;SDS011;5500;49.886;8.074;2022-12-15T05:20:24;22.50;;;13.40;;
10894;SDS011;5500;49.886;8.074;2022-12-15T05:23:09;22.03;;;14.47;;
10894;SDS011;5500;49.886;8.074;2022-12-15T05:25:57;22.93;;;14.23;;
10894;SDS011;5500;49.886;8.074;2022-12-15T05:28:41;23.00;;;14.37;;
10894;SDS011;5500;49.886;8.074;2022-12-15T05:31:27;22.37;;;14.53;;
10894;SDS011;5500;49.886;8.074;2022-12-15T05:34:15;23.73;;;14.67;;
10894;SDS011;5500;49.886;8.074;2022-12-15T05:36:43;23.43;;;14.17;;
10894;SDS011;5500;49.886;8.074;2022-12-15T05:39:10;24.93;;;16.43;;
10894;SDS011;5500;49.886;8.074;2022-12-15T05:41:38;23.07;;;14.67;;
10894;SDS011;5500;49.886;8.074;2022-12-15T05:44:06;24.27;;;15.33;;
10894;SDS011;5500;49.886;8.074;2022-12-15T05:46:35;21.13;;;13.97;;
10894;SDS011;5500;49.886;8.074;2022-12-15T05:49:03;23.83;;;14.40;;
10894;SDS011;5500;49.886;8.074;2022-12-15T05:51:32;22.00;;;13.80;;
10894;SDS011;5500;49.886;8.074;2022-12-15T05:54:03;21.27;;;14.13;;
10894;SDS011;5500;49.886;8.074;2022-12-15T05:56:30;24.67;;;14.67;;
10894;SDS011;5500;49.886;8.074;2022-12-15T05:58:58;24.57;;;15.10;;
10894;SDS011;5500;49.886;8.074;2022-12-15T06:01:26;25.13;;;14.97;;
10894;SDS011;5500;49.886;8.074;2022-12-15T06:03:56;22.37;;;16.00;;
10894;SDS011;5500;49.886;8.074;2022-12-15T06:06:24;23.90;;;15.53;;
10894;SDS011;5500;49.886;8.074;2022-12-15T06:08:53;27.67;;;17.27;;
10894;SDS011;5500;49.886;8.074;2022-12-15T06:11:21;25.93;;;17.50;;
10894;SDS011;5500;49.886;8.074;2022-12-15T06:13:49;25.00;;;16.80;;
10894;SDS011;5500;49.886;8.074;2022-12-15T06:16:17;26.10;;;17.50;;
10894;SDS011;5500;49.886;8.074;2022-12-15T06:18:47;25.07;;;16.30;;
10894;SDS011;5500;49.886;8.074;2022-12-15T06:21:17;22.20;;;15.60;;
10894;SDS011;5500;49.886;8.074;2022-12-15T06:23:46;27.00;;;16.27;;
10894;SDS011;5500;49.886;8.074;2022-12-15T06:26:16;28.33;;;17.50;;
10894;SDS011;5500;49.886;8.074;2022-12-15T06:28:45;32.20;;;17.50;;
10894;SDS011;5500;49.886;8.074;2022-12-15T06:31:14;28.57;;;17.37;;
10894;SDS011;5500;49.886;8.074;2022-12-15T06:33:43;27.43;;;17.20;;
10894;SDS011;5500;49.886;8.074;2022-12-15T06:36:12;26.27;;;17.47;;
10894;SDS011;5500;49.886;8.074;2022-12-15T06:38:40;32.00;;;18.30;;
10894;SDS011;5500;49.886;8.074;2022-12-15T06:41:09;24.97;;;16.23;;
10894;SDS011;5500;49.886;8.074;2022-12-15T06:43:43;28.80;;;18.60;;
10894;SDS011;5500;49.886;8.074;2022-12-15T06:46:15;30.07;;;19.33;;
10894;SDS011;5500;49.886;8.074;2022-12-15T06:48:43;30.43;;;19.20;;
10894;SDS011;5500;49.886;8.074;2022-12-15T06:51:12;36.47;;;19.67;;
10894;SDS011;5500;49.886;8.074;2022-12-15T06:53:42;39.97;;;22.73;;
10894;SDS011;5500;49.886;8.074;2022-12-15T06:56:15;46.07;;;23.23;;
10894;SDS011;5500;49.886;8.074;2022-12-15T06:58:45;47.87;;;24.07;;
10894;SDS011;5500;49.886;8.074;2022-12-15T07:01:13;41.27;;;21.80;;
10894;SDS011;5500;49.886;8.074;2022-12-15T07:03:41;41.23;;;20.00;;
10894;SDS011;5500;49.886;8.074;2022-12-15T07:06:10;40.27;;;21.37;;
10894;SDS011;5500;49.886;8.074;2022-12-15T07:08:39;43.40;;;21.20;;
10894;SDS011;5500;49.886;8.074;2022-12-15T07:11:08;36.37;;;21.07;;
10894;SDS011;5500;49.886;8.074;2022-12-15T07:13:37;43.43;;;22.07;;
10894;SDS011;5500;49.886;8.074;2022-12-15T07:16:08;37.13;;;21.33;;
10894;SDS011;5500;49.886;8.074;2022-12-15T07:18:37;38.43;;;22.77;;
10894;SDS011;5500;49.886;8.074;2022-12-15T07:21:06;35.90;;;21.27;;
10894;SDS011;5500;49.886;8.074;2022-12-15T07:23:35;41.07;;;22.93;;
10894;SDS011;5500;49.886;8.074;2022-12-15T07:26:22;49.80;;;25.43;;
10894;SDS011;5500;49.886;8.074;2022-12-15T07:28:50;39.70;;;23.07;;
10894;SDS011;5500;49.886;8.074;2022-12-15T07:31:19;56.93;;;23.90;;
10894;SDS011;5500;49.886;8.074;2022-12-15T07:33:48;56.80;;;22.70;;
10894;SDS011;5500;49.886;8.074;2022-12-15T07:36:17;44.37;;;22.00;;
10894;SDS011;5500;49.886;8.074;2022-12-15T07:38:45;48.17;;;24.07;;
10894;SDS011;5500;49.886;8.074;2022-12-15T07:41:16;46.03;;;23.00;;
10894;SDS011;5500;49.886;8.074;2022-12-15T07:43:45;60.73;;;21.80;;
10894;SDS011;5500;49.886;8.074;2022-12-15T07:46:13;52.07;;;23.03;;
10894;SDS011;5500;49.886;8.074;2022-12-15T07:48:42;44.53;;;22.97;;
10894;SDS011;5500;49.886;8.074;2022-12-15T07:51:16;40.40;;;21.80;;
10894;SDS011;5500;49.886;8.074;2022-12-15T07:53:46;45.20;;;23.90;;
10894;SDS011;5500;49.886;8.074;2022-12-15T07:56:14;44.83;;;25.30;;
10894;SDS011;5500;49.886;8.074;2022-12-15T07:58:42;44.30;;;23.93;;
10894;SDS011;5500;49.886;8.074;2022-12-15T08:01:10;46.73;;;25.53;;
10894;SDS011;5500;49.886;8.074;2022-12-15T08:03:39;48.47;;;25.17;;
10894;SDS011;5500;49.886;8.074;2022-12-15T08:06:09;42.77;;;25.63;;
10894;SDS011;5500;49.886;8.074;2022-12-15T08:08:38;50.00;;;24.60;;
10894;SDS011;5500;49.886;8.074;2022-12-15T08:11:06;42.83;;;23.93;;
10894;SDS011;5500;49.886;8.074;2022-12-15T08:13:35;39.17;;;22.60;;
10894;SDS011;5500;49.886;8.074;2022-12-15T08:16:24;40.93;;;23.67;;
10894;SDS011;5500;49.886;8.074;2022-12-15T08:18:52;38.93;;;23.17;;
10894;SDS011;5500;49.886;8.074;2022-12-15T08:21:21;54.53;;;27.73;;
10894;SDS011;5500;49.886;8.074;2022-12-15T08:23:49;62.60;;;26.93;;
10894;SDS011;5500;49.886;8.074;2022-12-15T08:26:17;80.97;;;27.43;;
10894;SDS011;5500;49.886;8.074;2022-12-15T08:28:51;80.57;;;28.17;;
10894;SDS011;5500;49.886;8.074;2022-12-15T08:31:20;54.37;;;26.83;;
10894;SDS011;5500;49.886;8.074;2022-12-15T08:33:49;57.93;;;27.13;;
10894;SDS011;5500;49.886;8.074;2022-12-15T08:36:17;55.90;;;25.83;;
10894;SDS011;5500;49.886;8.074;2022-12-15T08:38:47;86.43;;;28.37;;
10894;SDS011;5500;49.886;8.074;2022-12-15T08:41:16;60.17;;;27.00;;
10894;SDS011;5500;49.886;8.074;2022-12-15T08:43:44;56.67;;;27.90;;
10894;SDS011;5500;49.886;8.074;2022-12-15T08:46:14;62.07;;;28.23;;
10894;SDS011;5500;49.886;8.074;2022-12-15T08:48:43;54.30;;;25.93;;
10894;SDS011;5500;49.886;8.074;2022-12-15T08:51:11;83.83;;;30.13;;
10894;SDS011;5500;49.886;8.074;2022-12-15T08:53:38;61.10;;;29.20;;
10894;SDS011;5500;49.886;8.074;2022-12-15T08:56:09;52.27;;;27.20;;
10894;SDS011;5500;49.886;8.074;2022-12-15T08:58:38;78.03;;;25.97;;
10894;SDS011;5500;49.886;8.074;2022-12-15T09:01:06;98.63;;;24.53;;
10894;SDS011;5500;49.886;8.074;2022-12-15T09:03:35;80.33;;;24.73;;
10894;SDS011;5500;49.886;8.074;2022-12-15T09:06:04;76.67;;;25.53;;
10894;SDS011;5500;49.886;8.074;2022-12-15T09:08:32;109.23;;;24.53;;
10894;SDS011;5500;49.886;8.074;2022-12-15T09:11:00;117.47;;;26.13;;
10894;SDS011;5500;49.886;8.074;2022-12-15T09:13:30;80.53;;;25.70;;
10894;SDS011;5500;49.886;8.074;2022-12-15T09:15:59;94.93;;;27.30;;
10894;SDS011;5500;49.886;8.074;2022-12-15T09:18:36;99.00;;;26.43;;
10894;SDS011;5500;49.886;8.074;2022-12-15T09:21:05;89.80;;;25.93;;
10894;SDS011;5500;49.886;8.074;2022-12-15T09:23:34;149.03;;;28.17;;
10894;SDS011;5500;49.886;8.074;2022-12-15T09:26:03;193.73;;;30.90;;
10894;SDS011;5500;49.886;8.074;2022-12-15T09:28:33;121.10;;;26.93;;
10894;SDS011;5500;49.886;8.074;2022-12-15T09:31:02;84.90;;;29.60;;
10894;SDS011;5500;49.886;8.074;2022-12-15T09:33:30;59.97;;;25.47;;
10894;SDS011;5500;49.886;8.074;2022-12-15T09:36:00;92.90;;;26.23;;
10894;SDS011;5500;49.886;8.074;2022-12-15T09:38:28;89.77;;;26.83;;
10894;SDS011;5500;49.886;8.074;2022-12-15T09:40:56;84.97;;;25.53;;
10894;SDS011;5500;49.886;8.074;2022-12-15T09:43:24;92.00;;;25.63;;
10894;SDS011;5500;49.886;8.074;2022-12-15T09:46:10;93.57;;;26.10;;
10894;SDS011;5500;49.886;8.074;2022-12-15T09:48:43;68.17;;;25.67;;
10894;SDS011;5500;49.886;8.074;2022-12-15T09:51:13;48.17;;;25.10;;
10894;SDS011;5500;49.886;8.074;2022-12-15T09:53:43;90.07;;;26.13;;
10894;SDS011;5500;49.886;8.074;2022-12-15T09:56:22;82.67;;;24.50;;
10894;SDS011;5500;49.886;8.074;2022-12-15T09:58:55;126.43;;;27.80;;
10894;SDS011;5500;49.886;8.074;2022-12-15T10:01:30;170.77;;;30.10;;
10894;SDS011;5500;49.886;8.074;2022-12-15T10:04:03;77.47;;;27.47;;
10894;SDS011;5500;49.886;8.074;2022-12-15T10:06:32;70.33;;;25.97;;
10894;SDS011;5500;49.886;8.074;2022-12-15T10:09:08;85.57;;;28.30;;
10894;SDS011;5500;49.886;8.074;2022-12-15T10:11:43;70.83;;;28.30;;
10894;SDS011;5500;49.886;8.074;2022-12-15T10:14:20;104.63;;;27.53;;
10894;SDS011;5500;49.886;8.074;2022-12-15T10:16:54;58.50;;;25.93;;
10894;SDS011;5500;49.886;8.074;2022-12-15T10:19:29;71.03;;;27.67;;
10894;SDS011;5500;49.886;8.074;2022-12-15T10:22:00;70.77;;;29.47;;
10894;SDS011;5500;49.886;8.074;2022-12-15T10:24:28;100.77;;;28.30;;
10894;SDS011;5500;49.886;8.074;2022-12-15T10:27:23;71.27;;;26.97;;
10894;SDS011;5500;49.886;8.074;2022-12-15T10:30:00;87.40;;;26.57;;
10894;SDS011;5500;49.886;8.074;2022-12-15T10:32:32;99.37;;;26.30;;
10894;SDS011;5500;49.886;8.074;2022-12-15T10:35:17;64.50;;;27.87;;
10894;SDS011;5500;49.886;8.074;2022-12-15T10:37:47;61.83;;;26.00;;
10894;SDS011;5500;49.886;8.074;2022-12-15T10:40:17;73.30;;;27.87;;
10894;SDS011;5500;49.886;8.074;2022-12-15T10:42:46;71.20;;;26.63;;
10894;SDS011;5500;49.886;8.074;2022-12-15T10:45:28;60.83;;;28.13;;
10894;SDS011;5500;49.886;8.074;2022-12-15T10:47:59;66.10;;;30.73;;
10894;SDS011;5500;49.886;8.074;2022-12-15T10:50:29;64.23;;;28.93;;
10894;SDS011;5500;49.886;8.074;2022-12-15T10:52:56;49.70;;;26.77;;
10894;SDS011;5500;49.886;8.074;2022-12-15T10:55:30;58.53;;;28.87;;
10894;SDS011;5500;49.886;8.074;2022-12-15T10:58:00;66.27;;;30.37;;
10894;SDS011;5500;49.886;8.074;2022-12-15T11:00:29;51.07;;;28.77;;
10894;SDS011;5500;49.886;8.074;2022-12-15T11:03:00;50.73;;;27.57;;
10894;SDS011;5500;49.886;8.074;2022-12-15T11:05:49;46.93;;;26.53;;
10894;SDS011;5500;49.886;8.074;2022-12-15T11:08:19;48.83;;;26.23;;
10894;SDS011;5500;49.886;8.074;2022-12-15T11:10:49;50.37;;;26.77;;
10894;SDS011;5500;49.886;8.074;2022-12-15T11:13:37;53.50;;;27.93;;
10894;SDS011;5500;49.886;8.074;2022-12-15T11:16:10;48.53;;;26.47;;
10894;SDS011;5500;49.886;8.074;2022-12-15T11:18:43;52.63;;;27.90;;
10894;SDS011;5500;49.886;8.074;2022-12-15T11:21:16;47.63;;;27.23;;
10894;SDS011;5500;49.886;8.074;2022-12-15T11:23:49;54.97;;;27.60;;
10894;SDS011;5500;49.886;8.074;2022-12-15T11:29:08;56.37;;;27.30;;
10894;SDS011;5500;49.886;8.074;2022-12-15T11:31:42;53.90;;;28.13;;
10894;SDS011;5500;49.886;8.074;2022-12-15T11:34:15;53.60;;;29.07;;
10894;SDS011;5500;49.886;8.074;2022-12-15T11:37:09;50.00;;;25.80;;
10894;SDS011;5500;49.886;8.074;2022-12-15T11:39:45;46.80;;;27.17;;
10894;SDS011;5500;49.886;8.074;2022-12-15T11:42:21;56.10;;;28.53;;
10894;SDS011;5500;49.886;8.074;2022-12-15T11:44:55;57.57;;;28.77;;
10894;SDS011;5500;49.886;8.074;2022-12-15T11:47:28;53.07;;;28.87;;
10894;SDS011;5500;49.886;8.074;2022-12-15T11:56:01;54.47;;;30.63;;
10894;SDS011;5500;49.886;8.074;2022-12-15T12:01:20;54.97;;;30.27;;
10894;SDS011;5500;49.886;8.074;2022-12-15T12:03:59;54.07;;;29.67;;
10894;SDS011;5500;49.886;8.074;2022-12-15T12:06:33;57.07;;;30.83;;
10894;SDS011;5500;49.886;8.074;2022-12-15T12:09:12;56.60;;;29.83;;
10894;SDS011;5500;49.886;8.074;2022-12-15T12:11:49;50.50;;;27.47;;
10894;SDS011;5500;49.886;8.074;2022-12-15T12:14:26;58.20;;;30.43;;
10894;SDS011;5500;49.886;8.074;2022-12-15T12:17:04;60.37;;;30.60;;
10894;SDS011;5500;49.886;8.074;2022-12-15T12:19:34;48.80;;;27.00;;
10894;SDS011;5500;49.886;8.074;2022-12-15T12:22:06;48.83;;;27.13;;
10894;SDS011;5500;49.886;8.074;2022-12-15T12:24:40;48.13;;;27.27;;
10894;SDS011;5500;49.886;8.074;2022-12-15T12:27:16;48.57;;;26.70;;
10894;SDS011;5500;49.886;8.074;2022-12-15T12:29:52;54.80;;;28.73;;
10894;SDS011;5500;49.886;8.074;2022-12-15T12:32:27;57.83;;;29.60;;
10894;SDS011;5500;49.886;8.074;2022-12-15T12:35:01;52.60;;;27.77;;
10894;SDS011;5500;49.886;8.074;2022-12-15T12:37:55;54.47;;;26.77;;
10894;SDS011;5500;49.886;8.074;2022-12-15T12:40:30;59.73;;;27.07;;
10894;SDS011;5500;49.886;8.074;2022-12-15T12:43:08;56.00;;;29.23;;
10894;SDS011;5500;49.886;8.074;2022-12-15T12:45:40;59.40;;;28.73;;
10894;SDS011;5500;49.886;8.074;2022-12-15T12:48:18;56.57;;;29.60;;
10894;SDS011;5500;49.886;8.074;2022-12-15T12:51:09;52.47;;;29.87;;
10894;SDS011;5500;49.886;8.074;2022-12-15T12:53:40;59.73;;;29.77;;
10894;SDS011;5500;49.886;8.074;2022-12-15T12:56:19;61.60;;;32.87;;
10894;SDS011;5500;49.886;8.074;2022-12-15T12:58:55;54.60;;;30.93;;
10894;SDS011;5500;49.886;8.074;2022-12-15T13:01:25;57.27;;;32.37;;
10894;SDS011;5500;49.886;8.074;2022-12-15T13:07:00;55.63;;;29.50;;
10894;SDS011;5500;49.886;8.074;2022-12-15T13:09:37;59.80;;;31.73;;
10894;SDS011;5500;49.886;8.074;2022-12-15T13:15:19;53.93;;;30.30;;
10894;SDS011;5500;49.886;8.074;2022-12-15T13:17:58;49.40;;;31.03;;
10894;SDS011;5500;49.886;8.074;2022-12-15T13:20:28;57.20;;;30.43;;
10894;SDS011;5500;49.886;8.074;2022-12-15T13:25:46;53.60;;;30.03;;
10894;SDS011;5500;49.886;8.074;2022-12-15T13:28:38;52.33;;;31.37;;
10894;SDS011;5500;49.886;8.074;2022-12-15T13:34:03;58.27;;;33.57;;
10894;SDS011;5500;49.886;8.074;2022-12-15T13:36:42;63.93;;;36.20;;
10894;SDS011;5500;49.886;8.074;2022-12-15T13:39:30;62.10;;;33.23;;
10894;SDS011;5500;49.886;8.074;2022-12-15T13:48:29;63.30;;;34.60;;
10894;SDS011;5500;49.886;8.074;2022-12-15T13:51:00;65.77;;;33.93;;
10894;SDS011;5500;49.886;8.074;2022-12-15T13:53:35;62.23;;;35.07;;
10894;SDS011;5500;49.886;8.074;2022-12-15T13:56:12;61.23;;;33.53;;
10894;SDS011;5500;49.886;8.074;2022-12-15T13:58:49;62.37;;;33.07;;
10894;SDS011;5500;49.886;8.074;2022-12-15T14:01:21;52.57;;;30.40;;
10894;SDS011;5500;49.886;8.074;2022-12-15T14:04:03;52.60;;;29.17;;
10894;SDS011;5500;49.886;8.074;2022-12-15T14:06:36;57.43;;;31.40;;
10894;SDS011;5500;49.886;8.074;2022-12-15T14:09:09;55.83;;;33.10;;
10894;SDS011;5500;49.886;8.074;2022-12-15T14:11:39;60.07;;;32.20;;
10894;SDS011;5500;49.886;8.074;2022-12-15T14:14:26;57.50;;;31.40;;
10894;SDS011;5500;49.886;8.074;2022-12-15T14:16:57;55.70;;;29.90;;
10894;SDS011;5500;49.886;8.074;2022-12-15T14:19:34;56.53;;;30.07;;
10894;SDS011;5500;49.886;8.074;2022-12-15T14:22:15;55.33;;;29.97;;
10894;SDS011;5500;49.886;8.074;2022-12-15T14:24:57;51.20;;;29.87;;
10894;SDS011;5500;49.886;8.074;2022-12-15T14:27:26;56.07;;;30.63;;
10894;SDS011;5500;49.886;8.074;2022-12-15T14:32:48;52.00;;;28.93;;
10894;SDS011;5500;49.886;8.074;2022-12-15T14:35:20;55.03;;;30.97;;
10894;SDS011;5500;49.886;8.074;2022-12-15T14:37:51;53.40;;;29.97;;
10894;SDS011;5500;49.886;8.074;2022-12-15T14:40:20;55.37;;;30.83;;
10894;SDS011;5500;49.886;8.074;2022-12-15T14:42:54;48.17;;;28.37;;
10894;SDS011;5500;49.886;8.074;2022-12-15T14:45:24;59.97;;;29.30;;
10894;SDS011;5500;49.886;8.074;2022-12-15T14:47:53;59.07;;;29.67;;
10894;SDS011;5500;49.886;8.074;2022-12-15T14:50:44;66.20;;;28.13;;
10894;SDS011;5500;49.886;8.074;2022-12-15T14:53:13;79.17;;;28.67;;
10894;SDS011;5500;49.886;8.074;2022-12-15T14:55:42;52.60;;;28.40;;
10894;SDS011;5500;49.886;8.074;2022-12-15T15:03:58;51.53;;;29.50;;
10894;SDS011;5500;49.886;8.074;2022-12-15T15:06:27;46.97;;;27.77;;
10894;SDS011;5500;49.886;8.074;2022-12-15T15:08:56;55.10;;;28.07;;
10894;SDS011;5500;49.886;8.074;2022-12-15T15:11:31;58.10;;;30.63;;
10894;SDS011;5500;49.886;8.074;2022-12-15T15:14:03;54.00;;;30.70;;
10894;SDS011;5500;49.886;8.074;2022-12-15T15:16:33;57.33;;;29.53;;
10894;SDS011;5500;49.886;8.074;2022-12-15T15:19:01;57.60;;;30.87;;
10894;SDS011;5500;49.886;8.074;2022-12-15T15:21:32;62.30;;;32.27;;
10894;SDS011;5500;49.886;8.074;2022-12-15T15:24:03;52.00;;;30.23;;
10894;SDS011;5500;49.886;8.074;2022-12-15T15:26:44;54.17;;;30.87;;
10894;SDS011;5500;49.886;8.074;2022-12-15T15:29:27;61.77;;;31.37;;
10894;SDS011;5500;49.886;8.074;2022-12-15T15:32:04;53.53;;;29.67;;
10894;SDS011;5500;49.886;8.074;2022-12-15T15:34:33;54.07;;;28.53;;
10894;SDS011;5500;49.886;8.074;2022-12-15T15:37:01;60.50;;;31.33;;
10894;SDS011;5500;49.886;8.074;2022-12-15T15:39:31;55.03;;;28.70;;
10894;SDS011;5500;49.886;8.074;2022-12-15T15:42:03;63.87;;;32.33;;
10894;SDS011;5500;49.886;8.074;2022-12-15T15:44:31;58.57;;;31.17;;
10894;SDS011;5500;49.886;8.074;2022-12-15T15:46:59;55.53;;;30.33;;
10894;SDS011;5500;49.886;8.074;2022-12-15T15:49:28;52.93;;;30.00;;
10894;SDS011;5500;49.886;8.074;2022-12-15T15:52:03;57.10;;;30.23;;
10894;SDS011;5500;49.886;8.074;2022-12-15T15:54:32;54.13;;;29.53;;
10894;SDS011;5500;49.886;8.074;2022-12-15T15:57:01;55.50;;;28.43;;